Time;durP1;ratioP1;P1;durP2;ratioP2;P2;SDS_P1;SDS_P2;PMS_P1;PMS_P2;Temp;Humidity;BMP_temperature;BMP_pressure;BME280_temperature;BME280_humidity;BME280_pressure;Samples;Min_cycle;Max_cycle;Signal;HPM_P1;HPM_P2
2021/05/24 00:00:57;;;;;;;3.55;0.95;;;;;;;18.85;50.02;100868.19;4895136;29;20431;-77
2021/05/24 00:03:23;;;;;;;1.40;0.50;;;;;;;18.83;49.92;100859.47;4926874;29;20561;-77
2021/05/24 00:05:48;;;;;;;0.55;0.30;;;;;;;18.85;49.92;100863.72;4930874;29;20028;-77
2021/05/24 00:08:13;;;;;;;0.68;0.30;;;;;;;18.84;49.98;100863.84;4927975;29;20027;-77
2021/05/24 00:10:41;;;;;;;0.40;0.30;;;;;;;18.85;49.95;100865.53;4910918;29;20035;-77
2021/05/24 00:13:08;;;;;;;0.95;0.30;;;;;;;18.84;50.29;100855.88;4911434;29;20102;-77
2021/05/24 00:15:36;;;;;;;0.85;0.50;;;;;;;18.83;50.12;100852.31;4930486;29;20063;-77
2021/05/24 00:18:03;;;;;;;0.85;0.40;;;;;;;18.82;50.25;100850.63;4910297;29;20052;-77
2021/05/24 00:20:31;;;;;;;0.20;0.20;;;;;;;18.82;50.11;100853.31;4926696;29;20512;-76
2021/05/24 00:22:57;;;;;;;0.55;0.35;;;;;;;18.82;50.07;100845.31;4911912;29;20032;-77
2021/05/24 00:25:23;;;;;;;0.22;0.20;;;;;;;18.82;50.50;100847.97;4929722;29;20028;-77
2021/05/24 00:27:48;;;;;;;0.90;0.40;;;;;;;18.83;50.07;100846.16;4928795;29;20337;-77
2021/05/24 00:30:14;;;;;;;1.02;0.50;;;;;;;18.79;50.49;100842.88;4919451;29;20036;-77
2021/05/24 00:32:40;;;;;;;0.95;0.40;;;;;;;18.82;50.26;100836.47;4921551;29;20490;-77
2021/05/24 00:35:06;;;;;;;0.38;0.38;;;;;;;18.83;50.36;100832.84;4929568;29;20024;-77
2021/05/24 00:37:31;;;;;;;0.98;0.40;;;;;;;18.81;49.73;100821.47;4928993;29;20039;-77
2021/05/24 00:39:56;;;;;;;0.95;0.30;;;;;;;18.81;50.12;100825.00;4928724;29;20471;-77
2021/05/24 00:42:22;;;;;;;1.08;0.30;;;;;;;18.81;50.07;100817.00;4919800;29;20032;-77
2021/05/24 00:44:47;;;;;;;0.60;0.40;;;;;;;18.81;49.93;100813.50;4929866;29;21469;-77
2021/05/24 00:47:12;;;;;;;1.95;0.40;;;;;;;18.79;50.21;100813.59;4927438;29;20778;-77
2021/05/24 00:49:38;;;;;;;1.02;0.50;;;;;;;18.78;49.82;100808.41;4931637;29;20434;-78
2021/05/24 00:52:03;;;;;;;0.88;0.40;;;;;;;18.79;49.92;100805.59;4919999;29;20592;-77
2021/05/24 00:54:29;;;;;;;1.27;0.40;;;;;;;18.76;49.94;100797.88;4930367;29;20023;-78
2021/05/24 00:56:57;;;;;;;0.35;0.30;;;;;;;18.81;50.00;100805.50;4926985;29;20031;-77
2021/05/24 00:59:23;;;;;;;0.98;0.52;;;;;;;18.80;50.34;100798.47;4930267;29;20098;-77
2021/05/24 01:01:49;;;;;;;0.85;0.30;;;;;;;18.80;49.97;100793.13;4906192;29;20407;-77
2021/05/24 01:04:16;;;;;;;0.65;0.35;;;;;;;18.78;49.85;100785.28;4912573;29;20502;-77
2021/05/24 01:06:42;;;;;;;0.85;0.30;;;;;;;18.77;50.42;100778.28;4928919;29;20035;-77
2021/05/24 01:09:07;;;;;;;0.93;0.38;;;;;;;18.77;50.05;100777.41;4930428;29;20035;-77
2021/05/24 01:11:33;;;;;;;0.77;0.40;;;;;;;18.78;49.87;100779.13;4926407;29;20031;-78
2021/05/24 01:14:00;;;;;;;1.40;0.50;;;;;;;18.77;49.86;100772.06;4929826;29;20040;-77
2021/05/24 01:16:25;;;;;;;0.60;0.35;;;;;;;18.79;49.94;100767.50;4915972;29;20122;-77
2021/05/24 01:18:51;;;;;;;1.02;0.40;;;;;;;18.77;49.89;100766.75;4932673;29;20110;-77
2021/05/24 01:21:17;;;;;;;0.70;0.38;;;;;;;18.79;50.10;100770.16;4933049;28;20046;-78
2021/05/24 01:23:44;;;;;;;0.95;0.40;;;;;;;18.79;50.40;100775.47;4927194;29;20470;-77
2021/05/24 01:26:09;;;;;;;1.42;0.40;;;;;;;18.76;50.30;100768.56;4909278;29;20163;-77
2021/05/24 01:29:39;;;;;;;0.50;0.35;;;;;;;18.77;50.31;100762.31;4924907;29;20570;-80
2021/05/24 01:32:05;;;;;;;1.13;0.40;;;;;;;18.77;50.30;100770.28;4841228;29;20062;-77
2021/05/24 01:34:32;;;;;;;0.30;0.20;;;;;;;18.78;50.02;100768.47;4836750;29;20369;-77
2021/05/24 01:36:58;;;;;;;1.33;0.40;;;;;;;18.77;50.25;100764.09;4880132;29;20042;-78
2021/05/24 01:39:23;;;;;;;0.95;0.47;;;;;;;18.76;49.50;100755.25;4928162;29;20055;-78
2021/05/24 01:41:48;;;;;;;1.30;0.52;;;;;;;18.77;49.58;100761.44;4927758;29;20860;-77
2021/05/24 01:44:25;;;;;;;0.93;0.40;;;;;;;18.73;49.82;100752.84;4928076;29;20082;-78
2021/05/24 01:46:51;;;;;;;0.80;0.47;;;;;;;18.74;49.98;100748.38;4927686;29;20083;-78
2021/05/24 01:49:16;;;;;;;0.22;0.20;;;;;;;18.76;50.33;100752.59;4909145;29;20119;-78
2021/05/24 01:51:41;;;;;;;0.77;0.30;;;;;;;18.76;50.13;100749.94;4932181;29;20118;-77
2021/05/24 01:54:07;;;;;;;0.50;0.30;;;;;;;18.73;50.00;100744.84;4929597;28;20064;-78
2021/05/24 01:56:32;;;;;;;0.40;0.35;;;;;;;18.76;50.35;100744.63;4929226;29;20199;-77
2021/05/24 01:58:57;;;;;;;0.55;0.30;;;;;;;18.76;50.22;100751.75;4927208;29;20583;-78
2021/05/24 02:01:22;;;;;;;1.30;0.43;;;;;;;18.76;49.71;100747.28;4925792;29;20043;-77
2021/05/24 02:03:48;;;;;;;0.47;0.30;;;;;;;18.75;50.23;100740.25;4927785;29;20067;-77
2021/05/24 02:06:13;;;;;;;0.80;0.38;;;;;;;18.75;49.64;100736.75;4910576;29;20040;-78
2021/05/24 02:08:39;;;;;;;0.40;0.35;;;;;;;18.74;50.31;100737.75;4924542;29;20035;-78
2021/05/24 02:11:04;;;;;;;0.65;0.40;;;;;;;18.74;49.71;100729.75;4929116;29;20031;-77
2021/05/24 02:13:30;;;;;;;0.95;0.40;;;;;;;18.75;49.97;100736.75;4926714;29;20458;-78
2021/05/24 02:15:55;;;;;;;0.77;0.50;;;;;;;18.75;49.90;100737.59;4919004;29;20043;-78
2021/05/24 02:18:21;;;;;;;1.65;0.40;;;;;;;18.75;49.87;100731.44;4927407;29;20114;-78
2021/05/24 02:20:46;;;;;;;0.77;0.40;;;;;;;18.75;50.16;100731.44;4928670;29;20036;-78
2021/05/24 02:23:12;;;;;;;0.70;0.40;;;;;;;18.74;50.38;100727.94;4908141;29;20031;-78
2021/05/24 02:25:37;;;;;;;0.98;0.38;;;;;;;18.75;50.10;100729.63;4923144;29;20031;-77
2021/05/24 02:28:03;;;;;;;1.23;0.50;;;;;;;18.73;50.11;100720.06;4905589;28;20102;-78
2021/05/24 02:30:29;;;;;;;0.98;0.70;;;;;;;18.74;49.58;100722.59;4929532;29;20035;-78
2021/05/24 02:32:55;;;;;;;1.20;0.43;;;;;;;18.75;50.42;100734.94;4938862;29;20027;-78
2021/05/24 02:35:22;;;;;;;0.40;0.40;;;;;;;18.75;50.33;100729.63;4928740;28;20111;-78
2021/05/24 02:37:48;;;;;;;0.40;0.30;;;;;;;18.76;49.98;100725.97;4922984;29;20040;-77
2021/05/24 02:40:15;;;;;;;0.80;0.50;;;;;;;18.75;49.91;100721.63;4931115;29;20623;-77
2021/05/24 02:42:40;;;;;;;1.52;0.25;;;;;;;18.77;50.40;100722.38;4913272;29;20032;-78
2021/05/24 02:45:08;;;;;;;0.43;0.40;;;;;;;18.77;50.32;100718.81;4927520;29;20039;-77
2021/05/24 02:47:33;;;;;;;0.55;0.30;;;;;;;18.77;50.12;100719.69;4930176;29;20023;-78
2021/05/24 02:49:59;;;;;;;0.75;0.40;;;;;;;18.77;49.79;100717.03;4929229;29;20038;-77
2021/05/24 02:52:24;;;;;;;0.65;0.32;;;;;;;18.76;50.05;100717.97;4926046;29;20339;-78
2021/05/24 02:54:49;;;;;;;1.35;0.50;;;;;;;18.76;50.05;100717.97;4928058;29;20091;-78
2021/05/24 02:57:14;;;;;;;0.77;0.52;;;;;;;18.78;50.20;100720.53;4923928;29;20079;-78
2021/05/24 02:59:40;;;;;;;0.65;0.40;;;;;;;18.76;50.19;100712.66;4918923;29;20020;-78
2021/05/24 03:02:06;;;;;;;1.13;0.43;;;;;;;18.78;50.03;100720.53;4924463;29;20119;-78
2021/05/24 03:04:32;;;;;;;0.55;0.30;;;;;;;18.80;50.20;100718.59;4927172;29;20118;-78
2021/05/24 03:06:58;;;;;;;0.47;0.30;;;;;;;18.80;49.96;100722.09;4926353;29;20028;-78
2021/05/24 03:09:23;;;;;;;0.60;0.40;;;;;;;18.81;50.30;100717.63;4913108;29;20383;-78
2021/05/24 03:11:48;;;;;;;0.55;0.40;;;;;;;18.80;50.11;100724.75;4925901;29;20234;-79
2021/05/24 03:14:14;;;;;;;1.25;0.73;;;;;;;18.81;49.86;100723.81;4930131;29;20040;-77
2021/05/24 03:16:39;;;;;;;1.55;0.30;;;;;;;18.81;50.01;100720.28;4917537;29;20035;-78
2021/05/24 03:19:05;;;;;;;0.68;0.40;;;;;;;18.81;49.44;100723.81;4920171;29;20024;-78
2021/05/24 03:21:30;;;;;;;0.70;0.40;;;;;;;18.81;50.20;100717.63;4920085;29;20035;-78
2021/05/24 03:23:56;;;;;;;0.22;0.22;;;;;;;18.78;49.72;100710.72;4927589;29;20031;-77
2021/05/24 03:26:21;;;;;;;0.90;0.47;;;;;;;18.82;49.54;100720.16;4928259;29;20163;-77
2021/05/24 03:28:46;;;;;;;0.50;0.35;;;;;;;18.80;50.11;100710.59;4929918;29;20537;-77
2021/05/24 03:31:12;;;;;;;0.80;0.40;;;;;;;18.80;50.33;100716.75;4902475;29;20031;-79
2021/05/24 03:33:38;;;;;;;1.30;0.50;;;;;;;18.80;50.19;100706.09;4932488;29;20027;-77
2021/05/24 03:36:05;;;;;;;0.95;0.50;;;;;;;18.81;49.99;100704.31;4930184;29;20030;-77
2021/05/24 03:38:30;;;;;;;0.82;0.40;;;;;;;18.81;50.08;100702.50;4932274;29;20043;-78
2021/05/24 03:40:55;;;;;;;0.95;0.40;;;;;;;18.81;50.14;100705.16;4922339;29;20059;-77
2021/05/24 03:43:22;;;;;;;0.30;0.30;;;;;;;18.82;49.96;100698.00;4931543;29;20035;-79
2021/05/24 03:45:47;;;;;;;0.88;0.45;;;;;;;18.82;50.03;100696.19;4929522;29;20032;-78
2021/05/24 03:48:13;;;;;;;0.50;0.30;;;;;;;18.81;49.61;100691.00;4935806;29;20023;-78
2021/05/24 03:50:38;;;;;;;0.63;0.40;;;;;;;18.80;49.89;100697.28;4929127;29;20106;-78
2021/05/24 03:53:03;;;;;;;0.40;0.38;;;;;;;18.78;49.66;100689.44;4932482;28;20035;-78
2021/05/24 03:55:29;;;;;;;1.40;0.40;;;;;;;18.80;49.79;100695.47;4935999;29;20055;-78
2021/05/24 03:57:54;;;;;;;0.45;0.30;;;;;;;18.79;49.90;100684.94;4934400;28;20027;-78
2021/05/24 04:00:20;;;;;;;0.30;0.25;;;;;;;18.81;49.71;100689.19;4925454;29;20039;-77
2021/05/24 04:02:45;;;;;;;0.55;0.40;;;;;;;18.81;49.77;100691.00;4932615;29;20031;-77
2021/05/24 04:05:19;;;;;;;0.40;0.40;;;;;;;18.80;49.85;100695.47;4932565;28;20391;-78
2021/05/24 04:07:50;;;;;;;0.65;0.40;;;;;;;18.80;49.84;100683.97;4931368;29;20060;-79
2021/05/24 04:10:17;;;;;;;0.40;0.30;;;;;;;18.79;50.17;100693.78;4912920;29;20705;-77
2021/05/24 04:12:42;;;;;;;0.85;0.40;;;;;;;18.79;49.92;100688.44;4913348;29;20041;-78
2021/05/24 04:15:08;;;;;;;0.63;0.43;;;;;;;18.78;49.84;100692.09;4932658;29;20059;-78
2021/05/24 04:17:36;;;;;;;0.40;0.35;;;;;;;18.80;49.86;100694.63;4927863;29;20059;-78
2021/05/24 04:20:04;;;;;;;0.80;0.40;;;;;;;18.79;50.00;100696.44;4934158;29;20031;-78
2021/05/24 04:22:29;;;;;;;0.60;0.40;;;;;;;18.80;49.76;100691.94;4937674;28;20028;-78
2021/05/24 04:24:54;;;;;;;0.40;0.30;;;;;;;18.79;49.78;100685.78;4927117;29;20027;-78
2021/05/24 04:27:20;;;;;;;1.10;0.45;;;;;;;18.78;49.56;100683.25;4925564;29;20031;-77
2021/05/24 04:29:46;;;;;;;0.95;0.40;;;;;;;18.80;50.02;100678.63;4925852;29;20086;-78
2021/05/24 04:32:11;;;;;;;0.82;0.40;;;;;;;18.81;49.88;100675.88;4927654;29;20530;-78
2021/05/24 04:34:37;;;;;;;0.95;0.30;;;;;;;18.80;49.80;100673.31;4931196;29;20127;-77
2021/05/24 04:37:02;;;;;;;0.70;0.40;;;;;;;18.80;50.16;100671.50;4929403;29;20653;-77
2021/05/24 04:39:27;;;;;;;0.90;0.30;;;;;;;18.80;49.52;100668.84;4920844;29;20447;-77
2021/05/24 04:41:53;;;;;;;0.77;0.30;;;;;;;18.81;50.10;100673.22;4930375;29;20039;-78
2021/05/24 04:44:19;;;;;;;0.50;0.30;;;;;;;18.82;49.98;100668.72;4929636;29;20099;-77
2021/05/24 04:46:46;;;;;;;0.55;0.35;;;;;;;18.83;50.09;100665.06;4929249;29;20098;-77
2021/05/24 04:49:11;;;;;;;0.55;0.40;;;;;;;18.84;49.75;100670.28;4911867;29;20074;-78
2021/05/24 04:51:37;;;;;;;0.52;0.20;;;;;;;18.83;49.79;100657.94;4913219;29;20395;-78
2021/05/24 04:54:04;;;;;;;0.73;0.30;;;;;;;18.83;49.83;100652.59;4928241;29;20340;-78
2021/05/24 04:56:29;;;;;;;0.32;0.30;;;;;;;18.79;49.97;100648.50;4930372;29;20059;-78
2021/05/24 04:58:54;;;;;;;0.77;0.50;;;;;;;18.82;49.69;100650.09;4909995;29;20031;-78
2021/05/24 05:01:20;;;;;;;0.55;0.32;;;;;;;18.83;49.47;100655.28;4923541;29;20082;-78
2021/05/24 05:03:45;;;;;;;0.75;0.40;;;;;;;18.83;49.65;100655.28;4931008;29;20043;-77
2021/05/24 05:06:10;;;;;;;0.60;0.43;;;;;;;18.84;49.80;100658.81;4933966;28;20036;-80
2021/05/24 05:08:36;;;;;;;0.82;0.35;;;;;;;18.83;50.06;100652.59;4910770;29;20526;-78
2021/05/24 05:11:01;;;;;;;0.32;0.30;;;;;;;18.84;50.01;100658.81;4929890;29;20039;-78
2021/05/24 05:13:26;;;;;;;0.75;0.40;;;;;;;18.84;49.87;100658.81;4929824;29;20431;-78
2021/05/24 05:15:51;;;;;;;0.85;0.35;;;;;;;18.84;49.84;100654.31;4928225;29;20451;-78
2021/05/24 05:18:17;;;;;;;0.45;0.35;;;;;;;18.85;49.65;100649.84;4925521;29;20031;-78
2021/05/24 05:20:42;;;;;;;1.70;0.40;;;;;;;18.84;49.18;100649.00;4912563;29;20066;-78
2021/05/24 05:23:07;;;;;;;0.35;0.30;;;;;;;18.81;49.83;100637.75;4924113;29;20032;-78
2021/05/24 05:25:33;;;;;;;0.45;0.30;;;;;;;18.78;49.39;100635.34;4923862;29;20514;-78
2021/05/24 05:27:58;;;;;;;0.70;0.40;;;;;;;18.82;49.66;100642.94;4924394;29;20051;-78
2021/05/24 05:30:23;;;;;;;0.60;0.40;;;;;;;18.85;49.74;100650.69;4922719;29;20391;-78
2021/05/24 05:32:49;;;;;;;0.60;0.40;;;;;;;18.85;49.80;100647.16;4922497;29;20035;-79
2021/05/24 05:35:16;;;;;;;0.60;0.20;;;;;;;18.84;50.18;100643.66;4913313;29;20356;-78
2021/05/24 05:37:42;;;;;;;0.70;0.38;;;;;;;18.85;49.59;100641.84;4929980;29;20027;-78
2021/05/24 05:40:14;;;;;;;0.63;0.20;;;;;;;18.85;49.66;100644.50;4928204;29;20097;-79
2021/05/24 05:42:40;;;;;;;0.45;0.30;;;;;;;18.85;49.79;100637.38;4936102;29;20035;-78
2021/05/24 05:45:05;;;;;;;0.75;0.40;;;;;;;18.86;50.13;100638.19;4926510;29;20040;-79
2021/05/24 05:47:31;;;;;;;0.65;0.30;;;;;;;18.86;49.69;100636.38;4927951;29;20521;-78
2021/05/24 05:49:56;;;;;;;0.32;0.30;;;;;;;18.84;49.40;100627.69;4942665;28;20039;-78
2021/05/24 05:52:22;;;;;;;0.80;0.45;;;;;;;18.85;49.97;100625.88;4928399;29;20030;-79
2021/05/24 05:54:47;;;;;;;0.30;0.30;;;;;;;18.86;49.90;100632.88;4569136;29;10000100;-78
2021/05/24 05:57:13;;;;;;;0.52;0.40;;;;;;;18.87;49.56;100631.91;4920485;29;20032;-78
2021/05/24 05:59:38;;;;;;;0.43;0.30;;;;;;;18.86;49.52;100625.72;4919927;29;20028;-78
2021/05/24 06:02:03;;;;;;;0.40;0.20;;;;;;;18.86;49.79;100624.88;4904966;29;20043;-78
2021/05/24 06:04:29;;;;;;;0.85;0.60;;;;;;;18.86;49.86;100623.06;4922694;29;20082;-78
2021/05/24 06:06:54;;;;;;;0.20;0.20;;;;;;;18.82;49.73;100613.66;4925482;28;20034;-78
2021/05/24 06:09:19;;;;;;;0.35;0.20;;;;;;;18.86;49.65;100616.91;4926337;29;21332;-81
2021/05/24 06:11:46;;;;;;;0.50;0.30;;;;;;;18.87;49.59;100630.09;4921860;29;20118;-79
2021/05/24 06:14:11;;;;;;;0.40;0.30;;;;;;;18.85;49.30;100626.72;4905289;29;20094;-78
2021/05/24 06:16:37;;;;;;;0.75;0.50;;;;;;;18.86;50.28;100625.72;4924475;29;20039;-79
2021/05/24 06:19:02;;;;;;;0.40;0.30;;;;;;;18.87;49.86;100635.44;4924301;29;20075;-79
2021/05/24 06:21:28;;;;;;;0.47;0.30;;;;;;;18.86;49.77;100617.75;4922785;29;20107;-79
2021/05/24 06:23:53;;;;;;;0.60;0.40;;;;;;;18.88;50.20;100617.63;4918035;29;20040;-77
2021/05/24 06:26:18;;;;;;;0.38;0.30;;;;;;;18.87;49.47;100621.25;4903479;29;20038;-80
2021/05/24 06:28:43;;;;;;;0.60;0.30;;;;;;;18.86;50.12;100620.41;4931357;29;20028;-80
2021/05/24 06:31:09;;;;;;;0.75;0.30;;;;;;;18.88;49.81;100630.94;4922024;28;20032;-80
2021/05/24 06:33:34;;;;;;;0.45;0.30;;;;;;;18.87;49.55;100626.56;4907612;29;20083;-81
2021/05/24 06:35:59;;;;;;;0.70;0.28;;;;;;;18.88;50.07;100617.63;4910817;29;20042;-81
2021/05/24 06:38:25;;;;;;;0.47;0.35;;;;;;;18.89;49.86;100627.31;4911241;29;20063;-81
2021/05/24 06:40:50;;;;;;;0.43;0.22;;;;;;;18.88;49.87;100625.63;4907511;29;20394;-81
2021/05/24 06:43:16;;;;;;;0.30;0.30;;;;;;;18.84;49.88;100614.38;4922292;29;20038;-81
2021/05/24 06:45:41;;;;;;;0.30;0.30;;;;;;;18.88;49.92;100621.13;4922440;29;20031;-80
2021/05/24 06:48:06;;;;;;;0.30;0.30;;;;;;;18.86;50.00;100620.41;4923723;29;20031;-79
2021/05/24 06:50:32;;;;;;;0.75;0.43;;;;;;;18.89;49.71;100619.31;4920625;29;20505;-81
2021/05/24 06:52:57;;;;;;;0.57;0.35;;;;;;;18.89;49.93;100620.16;4913135;29;20118;-80
2021/05/24 06:55:22;;;;;;;1.02;0.40;;;;;;;18.85;49.70;100602.75;4925257;29;20024;-81
2021/05/24 06:57:48;;;;;;;1.20;0.40;;;;;;;18.89;49.98;100608.66;4925612;29;20039;-80
2021/05/24 07:00:14;;;;;;;0.40;0.30;;;;;;;18.90;49.45;100594.38;4923260;29;20114;-80
2021/05/24 07:02:41;;;;;;;0.50;0.40;;;;;;;18.89;49.86;100596.19;4928447;29;20042;-80
2021/05/24 07:05:07;;;;;;;0.38;0.30;;;;;;;18.90;49.46;100591.69;4930466;29;20032;-80
2021/05/24 07:07:33;;;;;;;0.75;0.40;;;;;;;18.86;49.54;100580.47;4926485;29;20533;-80
2021/05/24 07:09:59;;;;;;;1.05;0.30;;;;;;;18.89;49.53;100582.03;4913816;29;20031;-80
2021/05/24 07:12:24;;;;;;;0.47;0.35;;;;;;;18.88;50.07;100578.53;4901625;29;20652;-77
2021/05/24 07:14:51;;;;;;;0.50;0.30;;;;;;;18.89;50.23;100585.53;4924697;29;20050;-77
2021/05/24 07:17:16;;;;;;;0.43;0.32;;;;;;;18.88;50.14;100575.03;4902989;29;20063;-78
2021/05/24 07:19:42;;;;;;;0.60;0.32;;;;;;;18.89;50.30;100579.38;4918770;29;20166;-76
2021/05/24 07:22:07;;;;;;;0.77;0.35;;;;;;;18.88;49.61;100573.19;4920388;29;20043;-78
2021/05/24 07:24:32;;;;;;;0.85;0.30;;;;;;;18.90;50.15;100586.38;4915481;29;20027;-79
2021/05/24 07:26:59;;;;;;;0.40;0.30;;;;;;;18.88;50.27;100573.19;4922110;29;20038;-77
2021/05/24 07:29:25;;;;;;;0.40;0.30;;;;;;;18.88;49.78;100572.34;4885523;29;20031;-78
2021/05/24 07:31:50;;;;;;;1.15;0.70;;;;;;;18.88;50.07;100580.34;4897846;29;20038;-78
2021/05/24 07:34:15;;;;;;;0.28;0.20;;;;;;;18.89;50.08;100579.38;4903884;29;20032;-79
2021/05/24 07:36:41;;;;;;;0.77;0.38;;;;;;;18.90;50.10;100578.38;4920164;29;20079;-81
2021/05/24 07:39:06;;;;;;;0.65;0.30;;;;;;;18.91;49.99;100582.75;4921690;29;20035;-78
2021/05/24 07:41:31;;;;;;;0.68;0.30;;;;;;;18.91;50.11;100574.78;4902871;29;20147;-79
2021/05/24 07:43:56;;;;;;;0.38;0.30;;;;;;;18.90;50.22;100571.22;4920628;29;20028;-79
2021/05/24 07:46:22;;;;;;;0.57;0.25;;;;;;;18.91;50.17;100570.28;4903625;29;20526;-78
2021/05/24 07:48:47;;;;;;;1.67;0.70;;;;;;;18.91;50.33;100569.44;4912186;29;20060;-78
2021/05/24 07:51:12;;;;;;;0.82;0.35;;;;;;;18.94;50.17;100571.84;4916059;29;20036;-79
2021/05/24 07:53:38;;;;;;;0.98;0.30;;;;;;;18.91;49.39;100562.28;4919059;29;20069;-79
2021/05/24 07:56:03;;;;;;;0.43;0.30;;;;;;;18.93;49.41;100560.31;4919249;29;20036;-79
2021/05/24 07:58:30;;;;;;;1.88;0.40;;;;;;;18.94;49.42;100556.72;4921957;29;20426;-79
2021/05/24 08:00:55;;;;;;;1.35;0.68;;;;;;;18.93;49.08;100549.66;4919098;29;20019;-79
2021/05/24 08:03:20;;;;;;;1.20;0.32;;;;;;;18.95;49.16;100549.56;4918529;29;20093;-79
2021/05/24 08:05:46;;;;;;;0.98;0.30;;;;;;;18.96;48.89;100553.91;4904200;29;20039;-80
2021/05/24 08:08:11;;;;;;;1.38;0.40;;;;;;;18.94;49.31;100556.72;4904959;29;20027;-79
2021/05/24 08:10:36;;;;;;;1.77;0.47;;;;;;;18.98;48.66;100564.44;4919719;29;20612;-79
2021/05/24 08:13:02;;;;;;;0.93;0.40;;;;;;;18.96;48.97;100553.91;4909279;29;20035;-79
2021/05/24 08:15:31;;;;;;;0.68;0.32;;;;;;;18.98;48.50;100556.47;4885269;29;20043;-79
2021/05/24 08:18:01;;;;;;;0.68;0.40;;;;;;;18.96;49.22;100547.75;4928800;29;20035;-79
2021/05/24 08:20:27;;;;;;;1.73;0.47;;;;;;;18.98;48.94;100548.47;4921592;29;20046;-79
2021/05/24 08:22:53;;;;;;;0.43;0.30;;;;;;;18.97;48.89;100541.44;4916219;29;20027;-81
2021/05/24 08:25:18;;;;;;;0.75;0.38;;;;;;;18.98;48.41;100543.13;4928339;29;20023;-80
2021/05/24 08:27:44;;;;;;;1.70;0.35;;;;;;;19.00;49.10;100555.31;4911676;29;20035;-81
2021/05/24 08:30:11;;;;;;;1.08;0.65;;;;;;;18.99;48.63;100552.81;4912621;29;20032;-79
2021/05/24 08:32:36;;;;;;;1.15;0.40;;;;;;;18.96;48.66;100539.75;4902558;29;20043;-82
2021/05/24 08:35:03;;;;;;;2.40;0.50;;;;;;;18.98;48.73;100536.00;4917723;29;20016;-79
2021/05/24 08:37:28;;;;;;;0.77;0.30;;;;;;;18.99;49.01;100532.34;4922874;29;20035;-80
2021/05/24 08:39:53;;;;;;;1.27;0.50;;;;;;;19.00;48.35;100530.53;4919577;29;20482;-80
2021/05/24 08:42:19;;;;;;;0.65;0.35;;;;;;;18.96;48.61;100526.44;4912660;29;20530;-80
2021/05/24 08:44:45;;;;;;;1.15;0.40;;;;;;;18.98;48.60;100524.50;4923532;29;20146;-78
2021/05/24 08:47:12;;;;;;;1.02;0.40;;;;;;;19.01;48.34;100526.88;4925822;29;20137;-79
2021/05/24 08:49:37;;;;;;;0.95;0.30;;;;;;;19.00;48.31;100523.38;4927778;29;20035;-79
2021/05/24 08:52:03;;;;;;;1.13;0.50;;;;;;;18.99;48.73;100513.69;4933242;29;20031;-78
2021/05/24 08:54:29;;;;;;;4.18;0.47;;;;;;;19.00;48.81;100522.53;4921197;29;20023;-77
2021/05/24 08:56:54;;;;;;;2.75;0.40;;;;;;;19.01;48.63;100521.53;4923106;29;20502;-77
2021/05/24 08:59:19;;;;;;;1.63;0.40;;;;;;;18.99;48.74;100507.53;4923722;29;20067;-76
2021/05/24 09:01:44;;;;;;;0.70;0.43;;;;;;;19.01;48.75;100514.44;4929391;29;20035;-77
2021/05/24 09:04:10;;;;;;;1.45;0.40;;;;;;;19.00;49.05;100507.38;4923206;29;20407;-77
2021/05/24 09:06:40;;;;;;;2.00;0.55;;;;;;;19.01;48.65;100509.09;4922126;29;20036;-76
2021/05/24 09:09:16;;;;;;;1.70;0.40;;;;;;;19.03;48.89;100514.28;4901016;29;20058;-76
2021/05/24 09:11:42;;;;;;;0.90;0.38;;;;;;;19.02;49.00;100510.78;4917868;29;20031;-76
2021/05/24 09:14:19;;;;;;;1.65;0.50;;;;;;;19.03;48.77;100501.81;4893362;29;20104;-77
2021/05/24 09:16:44;;;;;;;4.97;0.70;;;;;;;19.03;49.11;100499.13;4898468;29;20049;-76
2021/05/24 09:19:17;;;;;;;1.50;0.35;;;;;;;19.03;49.16;100496.47;4905119;29;20491;-77
2021/05/24 09:21:53;;;;;;;1.23;0.50;;;;;;;19.03;48.78;100492.97;4904994;29;20439;-77
2021/05/24 09:24:36;;;;;;;2.20;0.52;;;;;;;19.03;49.09;100487.66;4908156;29;20039;-76
2021/05/24 09:27:04;;;;;;;2.17;0.60;;;;;;;19.04;49.48;100484.00;4929669;29;20031;-76
2021/05/24 09:29:43;;;;;;;0.65;0.40;;;;;;;19.03;49.56;100477.00;4927366;29;20471;-77
2021/05/24 09:32:20;;;;;;;3.05;0.40;;;;;;;19.02;49.52;100483.31;4917626;29;20143;-77
2021/05/24 09:34:49;;;;;;;3.40;0.55;;;;;;;19.00;49.32;100475.41;4924071;29;20024;-76
2021/05/24 09:37:16;;;;;;;;;;;;;;;19.02;49.00;100469.97;4923645;29;20036;-76
2021/05/24 09:39:41;;;;;;;2.22;0.50;;;;;;;19.00;49.55;100466.59;4909408;29;20031;-76
2021/05/24 09:42:10;;;;;;;1.48;0.50;;;;;;;19.01;49.67;100461.16;4921558;29;20031;-76
2021/05/24 09:44:46;;;;;;;1.17;0.65;;;;;;;19.02;49.34;100467.31;4909098;29;20032;-76
2021/05/24 09:47:13;;;;;;;1.10;0.50;;;;;;;19.01;49.89;100452.28;4902692;29;20031;-76
2021/05/24 09:49:38;;;;;;;1.90;0.47;;;;;;;19.01;49.90;100469.16;4911511;29;20032;-77
2021/05/24 09:52:04;;;;;;;3.03;0.68;;;;;;;19.00;49.40;100453.28;4909482;29;20031;-76
2021/05/24 09:54:34;;;;;;;2.05;0.60;;;;;;;19.01;49.25;100449.63;4921077;29;20023;-77
2021/05/24 09:57:05;;;;;;;1.52;0.57;;;;;;;19.02;49.66;100451.34;4879695;29;20035;-79
2021/05/24 09:59:31;;;;;;;2.00;0.60;;;;;;;19.01;49.94;100450.50;4911240;29;20078;-79
2021/05/24 10:01:58;;;;;;;1.75;0.60;;;;;;;18.98;49.76;100448.09;4918990;29;20905;-78
2021/05/24 10:04:29;;;;;;;4.03;0.60;;;;;;;19.01;49.18;100446.97;4912232;29;20039;-78
2021/05/24 10:06:55;;;;;;;2.35;0.47;;;;;;;18.98;49.37;100445.44;4912878;29;20506;-79
2021/05/24 10:09:20;;;;;;;2.53;0.47;;;;;;;19.00;49.56;100448.78;4920043;29;20126;-78
2021/05/24 10:11:51;;;;;;;2.72;0.70;;;;;;;19.00;49.62;100438.13;4918130;29;20110;-78
2021/05/24 10:14:18;;;;;;;0.85;0.40;;;;;;;19.01;49.91;100434.53;4924280;29;20047;-80
2021/05/24 10:16:48;;;;;;;3.45;0.60;;;;;;;19.00;49.28;100431.97;4890792;29;20032;-78
2021/05/24 10:19:18;;;;;;;1.25;0.40;;;;;;;18.97;49.57;100418.91;4926152;29;20106;-80
2021/05/24 10:21:47;;;;;;;1.70;0.45;;;;;;;18.99;49.77;100424.97;4916325;29;20051;-80
2021/05/24 10:24:15;;;;;;;2.20;0.55;;;;;;;19.01;49.23;100426.53;4924868;29;20032;-79
2021/05/24 10:26:42;;;;;;;1.50;0.60;;;;;;;18.99;49.62;100417.81;4908881;29;20083;-80
2021/05/24 10:29:08;;;;;;;2.10;0.40;;;;;;;18.99;49.78;100412.50;4919010;29;20111;-77
2021/05/24 10:31:34;;;;;;;2.63;0.60;;;;;;;19.00;49.69;100418.66;4921255;29;20333;-80
2021/05/24 10:34:17;;;;;;;2.90;0.70;;;;;;;19.00;49.81;100413.31;4910220;29;20055;-80
2021/05/24 10:36:44;;;;;;;3.65;0.70;;;;;;;19.00;49.58;100398.19;4927015;29;20038;-79
2021/05/24 10:39:29;;;;;;;1.55;0.55;;;;;;;19.01;49.15;100402.56;4930843;29;20038;-80
2021/05/24 10:41:54;;;;;;;1.20;0.38;;;;;;;19.01;49.29;100409.69;4925082;29;20046;-80
2021/05/24 10:44:36;;;;;;;1.60;0.60;;;;;;;18.99;49.41;100407.16;4931209;29;20032;-79
2021/05/24 10:47:18;;;;;;;2.78;0.88;;;;;;;18.99;49.96;100407.16;4924594;29;20103;-80
2021/05/24 10:50:03;;;;;;;2.65;0.90;;;;;;;19.01;49.34;100396.34;4927104;29;20140;-77
2021/05/24 10:52:29;;;;;;;2.63;0.80;;;;;;;19.01;49.43;100383.91;4926380;29;20249;-76
2021/05/24 10:54:54;;;;;;;2.78;0.75;;;;;;;19.02;49.15;100382.94;4926423;29;20387;-75
2021/05/24 10:57:21;;;;;;;3.00;0.60;;;;;;;19.02;49.43;100372.28;4924833;29;20035;-75
2021/05/24 10:59:51;;;;;;;2.03;0.80;;;;;;;18.99;49.24;100364.53;4901813;29;20055;-75
2021/05/24 11:02:22;;;;;;;2.35;0.70;;;;;;;19.03;49.81;100368.63;4921846;29;20567;-75
2021/05/24 11:04:58;;;;;;;1.50;0.60;;;;;;;19.04;49.73;100366.78;4926987;29;20053;-75
2021/05/24 11:07:42;;;;;;;3.30;1.10;;;;;;;19.02;49.32;100361.63;4893278;29;20067;-75
2021/05/24 11:10:19;;;;;;;3.65;0.60;;;;;;;19.03;49.07;100355.31;4904590;29;20035;-77
2021/05/24 11:13:09;;;;;;;2.95;0.70;;;;;;;19.04;49.54;100350.81;4926042;29;20178;-77
2021/05/24 11:15:39;;;;;;;1.35;0.60;;;;;;;19.03;49.12;100349.13;4925701;29;20347;-77
2021/05/24 11:18:05;;;;;;;1.80;0.50;;;;;;;19.05;49.11;100347.19;4929104;29;20020;-76
2021/05/24 11:20:51;;;;;;;1.95;0.50;;;;;;;19.06;49.61;100339.06;4930525;29;20043;-76
2021/05/24 11:26:33;;;;;;;1.30;0.45;;;;;;;19.05;49.61;100358.69;4926418;29;20120;-76